createdAt,value
2022-08-11T00:03:19.320Z,0.2
2022-08-11T00:08:18.580Z,0.2
2022-08-11T00:13:18.869Z,0.3
2022-08-11T00:18:22.757Z,0.3
2022-08-11T00:23:18.317Z,0.2
2022-08-11T00:28:14.529Z,0.3
2022-08-11T00:33:14.566Z,0.2
2022-08-11T00:38:14.493Z,0.3
2022-08-11T00:43:20.607Z,0.2
2022-08-11T00:48:14.608Z,0.2
2022-08-11T00:53:15.498Z,0.1
2022-08-11T00:58:21.831Z,0.2
2022-08-11T01:03:14.574Z,0.2
2022-08-11T01:08:14.539Z,0.3
2022-08-11T01:13:14.546Z,0.2
2022-08-11T01:18:14.552Z,0.2
2022-08-11T01:23:17.643Z,0.3
2022-08-11T01:28:14.570Z,0.2
2022-08-11T01:33:15.538Z,0.2
2022-08-11T01:38:14.544Z,0.2
2022-08-11T01:43:14.584Z,0.2
2022-08-11T01:48:14.630Z,0.1
2022-08-11T01:53:15.791Z,0.2
2022-08-11T01:58:16.611Z,0.2
2022-08-11T02:03:14.570Z,0.3
2022-08-11T02:08:14.539Z,0.2
2022-08-11T02:13:14.557Z,0.2
2022-08-11T02:18:14.567Z,0.1
2022-08-11T02:23:23.082Z,0.2
2022-08-11T02:28:14.581Z,0.2
2022-08-11T02:33:14.561Z,0.2
2022-08-11T02:38:14.581Z,0.3
2022-08-11T02:43:14.553Z,0.2
2022-08-11T02:48:19.475Z,0.2
2022-08-11T02:53:14.596Z,0.2
2022-08-11T02:58:17.602Z,0.2
2022-08-11T03:03:17.605Z,0.2
2022-08-11T03:08:14.581Z,0.2
2022-08-11T03:13:17.563Z,0.1
2022-08-11T03:18:26.867Z,0.2
2022-08-11T03:23:26.845Z,0.2
2022-08-11T03:28:26.949Z,0.2
2022-08-11T03:33:26.858Z,0.2
2022-08-11T03:38:30.499Z,0.2
2022-08-11T03:43:26.998Z,0.2
2022-08-11T03:48:26.915Z,0.3
2022-08-11T03:53:26.842Z,0.2
2022-08-11T03:58:26.843Z,0.2
2022-08-11T04:03:30.978Z,0.2
2022-08-11T04:08:33.981Z,0.2
2022-08-11T04:13:26.832Z,0.3
2022-08-11T04:18:26.853Z,0.4
2022-08-11T04:24:12.755Z,0.3
2022-08-11T04:28:31.380Z,0.4
2022-08-11T04:33:26.856Z,0.5
2022-08-11T04:38:27.584Z,0.5
2022-08-11T04:43:26.864Z,0.7
2022-08-11T04:48:26.859Z,0.6
2022-08-11T04:53:26.868Z,0.8
2022-08-11T04:58:30.084Z,0.6
2022-08-11T05:03:26.881Z,0.8
2022-08-11T05:08:26.939Z,0.9
2022-08-11T05:13:26.869Z,0.9
2022-08-11T05:18:26.830Z,0.9
2022-08-11T05:23:26.873Z,0.1
2022-08-11T05:28:26.851Z,0.1
2022-08-11T05:33:26.865Z,0.11
2022-08-11T05:38:28.429Z,0.12
2022-08-11T05:43:26.864Z,0.1
2022-08-11T05:48:26.913Z,0.12
2022-08-11T05:53:29.881Z,0.12
2022-08-11T05:58:26.869Z,0.11
2022-08-11T06:03:26.903Z,0.13
2022-08-11T06:08:26.923Z,0.13
2022-08-11T06:13:26.928Z,0.14
2022-08-11T06:18:26.919Z,0.14
2022-08-11T06:23:26.900Z,0.14
2022-08-11T06:28:26.880Z,0.13
2022-08-11T06:33:26.936Z,0.15
2022-08-11T06:38:30.218Z,0.15
2022-08-11T06:43:26.948Z,0.16
2022-08-11T06:48:26.986Z,0.16
2022-08-11T06:53:27.914Z,0.16
2022-08-11T06:58:26.884Z,0.16
2022-08-11T07:03:26.936Z,0.17
2022-08-11T07:08:34.998Z,0.17
2022-08-11T07:13:39.362Z,0.17
2022-08-11T07:18:26.941Z,0.18
2022-08-11T07:23:26.911Z,0.18
2022-08-11T07:28:29.909Z,0.19
2022-08-11T07:34:06.252Z,0.18
2022-08-11T07:38:28.522Z,0.2
2022-08-11T07:43:27.038Z,0.21
2022-08-11T07:48:26.950Z,0.23
2022-08-11T07:53:26.946Z,0.24
2022-08-11T07:58:29.977Z,0.25
2022-08-11T08:03:26.924Z,0.26
2022-08-11T08:08:26.907Z,0.28
2022-08-11T08:13:26.909Z,0.3
2022-08-11T08:18:28.911Z,0.31
2022-08-11T08:23:26.969Z,0.34
2022-08-11T08:28:32.406Z,0.34
2022-08-11T08:33:26.944Z,0.35
2022-08-11T08:38:27.008Z,0.38
2022-08-11T08:43:27.037Z,0.41
2022-08-11T08:48:27.042Z,0.46
2022-08-11T08:53:26.946Z,0.57
2022-08-11T08:58:26.971Z,0.7
2022-08-11T09:03:40.890Z,4.42
2022-08-11T09:08:26.906Z,9.79
2022-08-11T09:13:26.975Z,7.61
2022-08-11T09:18:33.580Z,6.85
2022-08-11T09:28:26.954Z,7.74
2022-08-11T09:33:28.616Z,8.13
2022-08-11T09:38:28.573Z,9.39
2022-08-11T09:43:26.972Z,8.45
2022-08-11T09:48:27.553Z,8.2
2022-08-11T09:53:35.500Z,8.93
2022-08-11T09:58:41.527Z,8.89
2022-08-11T10:03:27.007Z,8.8
2022-08-11T10:08:26.967Z,8.91
2022-08-11T10:13:43.698Z,8.13
2022-08-11T10:18:27.048Z,6.69
2022-08-11T10:23:27.007Z,6.76
2022-08-11T10:28:44.606Z,7.86
2022-08-11T10:33:37.177Z,8.2
2022-08-11T10:38:27.780Z,8.6
2022-08-11T10:44:00.371Z,8.62
2022-08-11T10:48:28.021Z,7.81
2022-08-11T10:53:26.970Z,7.36
2022-08-11T10:58:27.022Z,8.58
2022-08-11T11:03:27.036Z,6.98
2022-08-11T11:08:27.030Z,7.99
2022-08-11T11:13:27.080Z,8.37
2022-08-11T11:18:26.976Z,5.33
2022-08-11T11:23:27.091Z,0.63
2022-08-11T11:28:27.068Z,0.53
2022-08-11T11:33:27.025Z,0.44
2022-08-11T11:38:28.872Z,0.38
2022-08-11T11:43:27.059Z,0.34
2022-08-11T11:48:27.042Z,0.32
2022-08-11T11:53:27.040Z,0.31
2022-08-11T11:58:27.045Z,0.27
2022-08-11T12:03:27.505Z,0.27
2022-08-11T12:08:30.219Z,0.26
2022-08-11T12:13:27.118Z,0.25
2022-08-11T12:18:27.042Z,0.26
2022-08-11T12:23:27.072Z,0.25
2022-08-11T12:28:30.123Z,0.24
2022-08-11T12:33:27.118Z,0.25
2022-08-11T12:38:32.201Z,0.24
2022-08-11T12:43:37.045Z,0.24
2022-08-11T12:48:58.181Z,0.23
2022-08-11T12:53:27.058Z,0.24
2022-08-11T12:58:27.115Z,0.24
2022-08-11T13:03:27.015Z,0.26
2022-08-11T13:08:27.039Z,0.24
2022-08-11T13:13:53.257Z,0.24
2022-08-11T13:18:27.055Z,0.21
2022-08-11T13:23:27.034Z,0.21
2022-08-11T13:28:27.040Z,0.24
2022-08-11T13:33:27.037Z,0.23
2022-08-11T13:38:27.640Z,0.23
2022-08-11T13:43:27.052Z,0.24
2022-08-11T13:48:27.143Z,0.25
2022-08-11T13:53:27.041Z,0.23
2022-08-11T13:58:39.767Z,0.24
2022-08-11T14:03:30.192Z,0.25
2022-08-11T14:08:38.317Z,0.25
2022-08-11T14:13:27.035Z,0.24
2022-08-11T14:18:27.108Z,0.26
2022-08-11T14:23:27.122Z,0.19
2022-08-11T14:28:35.456Z,0.24
2022-08-11T14:33:38.115Z,0.24
2022-08-11T14:38:27.114Z,0.23
2022-08-11T14:44:13.435Z,0.2
2022-08-11T14:48:27.090Z,0.27
2022-08-11T14:53:27.102Z,0.23
2022-08-11T14:58:27.064Z,0.19
2022-08-11T15:03:30.138Z,0.19
2022-08-11T15:08:27.088Z,0.19
2022-08-11T15:13:27.109Z,0.16
2022-08-11T15:18:27.076Z,0.19
2022-08-11T15:23:27.155Z,0.15
2022-08-11T15:28:27.151Z,0.18
2022-08-11T15:33:27.179Z,0.2
2022-08-11T15:38:29.045Z,0.16
2022-08-11T15:43:30.152Z,0.15
2022-08-11T15:48:30.476Z,0.24
2022-08-11T15:53:27.969Z,0.2
2022-08-11T15:58:27.105Z,0.19
2022-08-11T16:03:54.594Z,0.18
2022-08-11T16:08:33.011Z,0.17
2022-08-11T16:13:27.122Z,0.16
2022-08-11T16:18:29.149Z,0.15
2022-08-11T16:23:27.098Z,0.16
2022-08-11T16:28:27.135Z,0.13
2022-08-11T16:33:49.236Z,0.13
2022-08-11T16:38:29.360Z,0.12
2022-08-11T16:43:27.190Z,0.12
2022-08-11T16:48:33.322Z,0.12
2022-08-11T16:53:45.914Z,0.11
2022-08-11T16:58:27.223Z,0.11
2022-08-11T17:03:27.132Z,0.1
2022-08-11T17:08:27.150Z,0.1
2022-08-11T17:13:27.205Z,0.9
2022-08-11T17:18:27.240Z,0.8
2022-08-11T17:23:27.155Z,0.8
2022-08-11T17:28:27.151Z,0.7
2022-08-11T17:33:27.179Z,0.6
2022-08-11T17:38:28.083Z,0.6
2022-08-11T17:43:27.173Z,0.6
2022-08-11T17:48:27.137Z,0.6
2022-08-11T17:53:27.168Z,0.5
2022-08-11T17:58:27.138Z,0.5
2022-08-11T18:03:27.200Z,0.5
2022-08-11T18:08:27.143Z,0.4
2022-08-11T18:13:27.224Z,0.5
2022-08-11T18:18:27.144Z,0.3
2022-08-11T18:23:41.819Z,0.4
2022-08-11T18:28:30.165Z,0.3
2022-08-11T18:34:03.638Z,0.3
2022-08-11T18:38:27.860Z,0.2
2022-08-11T18:43:28.328Z,0.2
2022-08-11T18:48:30.457Z,0.2
2022-08-11T18:53:27.159Z,0.2
2022-08-11T18:58:27.194Z,0.2
2022-08-11T19:03:27.231Z,0.2
2022-08-11T19:08:27.215Z,0.2
2022-08-11T19:13:27.146Z,0.1
2022-08-11T19:18:27.211Z,0.2
2022-08-11T19:23:27.221Z,0.2
2022-08-11T19:28:27.167Z,0.2
2022-08-11T19:33:51.182Z,0.3
2022-08-11T19:38:30.307Z,0.3
2022-08-11T19:43:29.340Z,0.3
2022-08-11T19:48:32.635Z,0.2
2022-08-11T19:53:27.233Z,0.2
2022-08-11T19:58:27.175Z,0.1
2022-08-11T20:03:27.151Z,0.2
2022-08-11T20:08:27.268Z,0.2
2022-08-11T20:13:27.222Z,0.2
2022-08-11T20:18:27.183Z,0.2
2022-08-11T20:23:27.238Z,0.2
2022-08-11T20:28:27.191Z,0.2
2022-08-11T20:33:27.218Z,0.3
2022-08-11T20:38:28.159Z,0.2
2022-08-11T20:44:05.277Z,0.2
2022-08-11T20:48:27.228Z,0.2
2022-08-11T20:53:28.241Z,0.2
2022-08-11T20:58:42.479Z,0.1
2022-08-11T21:03:35.928Z,0.2
2022-08-11T21:08:27.236Z,0.3
2022-08-11T21:13:31.293Z,0.2
2022-08-11T21:18:31.295Z,0.2
2022-08-11T21:23:30.226Z,0.1
2022-08-11T21:28:27.258Z,0.2
2022-08-11T21:33:27.252Z,0.2
2022-08-11T21:38:28.012Z,0.1
2022-08-11T21:43:27.279Z,0.2
2022-08-11T21:48:27.268Z,0.1
2022-08-11T21:53:27.193Z,0.2
2022-08-11T21:58:27.236Z,0.3
2022-08-11T22:03:27.232Z,0.2
2022-08-11T22:08:27.244Z,0.2
2022-08-11T22:13:27.276Z,0.2
2022-08-11T22:18:27.373Z,0.2
2022-08-11T22:23:35.229Z,0.2
2022-08-11T22:28:27.434Z,0.2
2022-08-11T22:33:30.374Z,0.2
2022-08-11T22:38:28.842Z,0.2
2022-08-11T22:43:27.297Z,0.2
2022-08-11T22:48:27.538Z,0.1
2022-08-11T22:53:57.998Z,0.2
2022-08-11T22:58:27.425Z,0.2
2022-08-11T23:03:34.376Z,0.2
2022-08-11T23:08:27.274Z,0.2
2022-08-11T23:13:27.284Z,0.2
2022-08-11T23:18:27.283Z,0.2
2022-08-11T23:23:27.363Z,0.1
2022-08-11T23:28:27.292Z,0.1
2022-08-11T23:33:27.294Z,0.2
2022-08-11T23:38:28.952Z,0.2
2022-08-11T23:43:27.340Z,0.2
2022-08-11T23:48:27.304Z,0.2
2022-08-11T23:53:27.366Z,0.3
2022-08-11T23:58:27.294Z,0.2
